Time;durP1;ratioP1;P1;durP2;ratioP2;P2;SDS_P1;SDS_P2;PMS_P1;PMS_P2;Temp;Humidity;BMP_temperature;BMP_pressure;BME280_temperature;BME280_humidity;BME280_pressure;Samples;Min_cycle;Max_cycle;Signal;HPM_P1;HPM_P2
2021/09/19 00:01:45;;;;;;;2.80;2.60;;;17.90;99.90;;;;;;6120397;23;20418;-84
2021/09/19 00:04:12;;;;;;;4.47;2.50;;;18.10;99.90;;;;;;6147023;23;20406;-84
2021/09/19 00:06:39;;;;;;;2.87;2.67;;;18.00;99.50;;;;;;6147337;23;20457;-87
2021/09/19 00:09:06;;;;;;;2.60;2.40;;;17.90;99.70;;;;;;6128045;23;20451;-83
2021/09/19 00:11:32;;;;;;;2.30;1.90;;;17.70;99.90;;;;;;6135350;23;20470;-85
2021/09/19 00:13:59;;;;;;;2.00;1.90;;;17.60;99.90;;;;;;6134725;23;20398;-84
2021/09/19 00:16:26;;;;;;;2.33;1.80;;;17.50;99.90;;;;;;6155183;23;21143;-85
2021/09/19 00:18:52;;;;;;;2.77;2.00;;;17.60;99.90;;;;;;6153833;23;20452;-85
2021/09/19 00:21:20;;;;;;;2.23;2.03;;;17.50;99.90;;;;;;6139580;23;20469;-85
2021/09/19 00:23:47;;;;;;;1.97;1.87;;;17.70;99.90;;;;;;6165073;23;20409;-84
2021/09/19 00:26:13;;;;;;;2.20;1.80;;;17.60;99.90;;;;;;6139487;23;20400;-85
2021/09/19 00:28:41;;;;;;;2.07;1.97;;;17.50;99.90;;;;;;6132980;23;20413;-86
2021/09/19 00:31:08;;;;;;;3.73;2.30;;;17.40;99.90;;;;;;6151142;23;20398;-87
2021/09/19 00:33:35;;;;;;;2.17;1.97;;;17.20;99.90;;;;;;6125290;23;20662;-83
2021/09/19 00:36:03;;;;;;;2.20;2.10;;;17.20;99.90;;;;;;6152610;23;20402;-85
2021/09/19 00:38:30;;;;;;;3.30;3.00;;;17.20;99.90;;;;;;6120321;23;21065;-85
2021/09/19 00:40:57;;;;;;;2.40;2.20;;;17.20;99.90;;;;;;6123452;23;20405;-85
2021/09/19 00:43:23;;;;;;;3.07;2.20;;;17.10;99.90;;;;;;6117844;23;20997;-84
2021/09/19 00:45:50;;;;;;;2.07;1.93;;;17.00;99.90;;;;;;6120884;23;20410;-86
2021/09/19 00:48:17;;;;;;;2.90;1.87;;;17.00;99.90;;;;;;6121953;23;20433;-85
2021/09/19 00:50:43;;;;;;;2.17;2.07;;;16.80;99.90;;;;;;6115489;23;20421;-83
2021/09/19 00:53:11;;;;;;;2.10;2.00;;;16.90;99.90;;;;;;6162367;23;20445;-86
2021/09/19 00:55:41;;;;;;;3.07;2.87;;;17.00;99.90;;;;;;6141017;23;20418;-87
2021/09/19 00:58:11;;;;;;;2.50;2.23;;;17.00;99.90;;;;;;6133189;23;20529;-85
2021/09/19 01:00:38;;;;;;;2.40;2.20;;;17.00;99.90;;;;;;6124750;23;20497;-86
2021/09/19 01:03:05;;;;;;;2.13;1.97;;;16.90;99.90;;;;;;6149165;23;20933;-85
2021/09/19 01:05:32;;;;;;;2.10;2.00;;;17.00;99.90;;;;;;6148832;23;20509;-85
2021/09/19 01:07:59;;;;;;;2.60;2.20;;;17.00;99.90;;;;;;6113949;23;21446;-84
2021/09/19 01:10:26;;;;;;;2.80;2.60;;;17.10;99.90;;;;;;6121833;23;20417;-86
2021/09/19 01:12:55;;;;;;;2.60;1.90;;;17.00;99.90;;;;;;6147532;23;20727;-86
2021/09/19 01:15:23;;;;;;;2.13;1.70;;;17.00;99.90;;;;;;6118856;23;20456;-86
2021/09/19 01:17:51;;;;;;;2.40;1.90;;;16.90;99.90;;;;;;6144388;23;20450;-85
2021/09/19 01:20:18;;;;;;;2.63;1.90;;;17.00;99.90;;;;;;6120762;23;20934;-85
2021/09/19 01:22:56;;;;;;;1.90;1.80;;;17.00;99.90;;;;;;6118320;23;20421;-84
2021/09/19 01:25:23;;;;;;;2.23;2.03;;;17.10;99.90;;;;;;6138621;23;20910;-84
2021/09/19 01:27:50;;;;;;;2.60;1.87;;;17.10;99.90;;;;;;6092868;23;20430;-84
2021/09/19 01:30:16;;;;;;;2.07;1.90;;;17.10;99.90;;;;;;6119171;23;20410;-83
2021/09/19 01:32:43;;;;;;;2.17;1.97;;;17.10;99.90;;;;;;6119789;23;20417;-86
2021/09/19 01:35:10;;;;;;;2.53;1.90;;;17.20;99.90;;;;;;6115009;23;20806;-86
2021/09/19 01:37:38;;;;;;;1.67;1.57;;;17.10;99.90;;;;;;6144560;23;20446;-85
2021/09/19 01:40:06;;;;;;;1.90;1.70;;;17.20;99.90;;;;;;6146882;23;20413;-84
2021/09/19 01:42:33;;;;;;;2.67;1.80;;;17.30;99.90;;;;;;6116963;23;20473;-85
2021/09/19 01:45:00;;;;;;;1.97;1.87;;;17.10;99.90;;;;;;6115255;23;20402;-86
2021/09/19 01:47:27;;;;;;;1.80;1.70;;;17.00;99.90;;;;;;6120631;23;20440;-85
2021/09/19 01:49:54;;;;;;;1.70;1.60;;;16.90;99.90;;;;;;6119049;23;20412;-88
2021/09/19 01:52:21;;;;;;;2.27;1.50;;;16.80;99.90;;;;;;6146982;23;20508;-86
2021/09/19 01:54:48;;;;;;;1.93;1.60;;;16.70;99.90;;;;;;6122041;23;20406;-85
2021/09/19 01:57:22;;;;;;;1.80;1.70;;;16.70;99.90;;;;;;6145364;23;20434;-86
2021/09/19 01:59:54;;;;;;;2.23;1.73;;;16.70;99.90;;;;;;6146776;23;20416;-84
2021/09/19 02:02:21;;;;;;;1.30;1.20;;;16.70;99.90;;;;;;6144213;23;20416;-85
2021/09/19 02:04:50;;;;;;;1.47;1.30;;;16.70;99.90;;;;;;6144082;23;21073;-85
2021/09/19 02:07:17;;;;;;;1.60;1.50;;;16.60;99.90;;;;;;6146386;23;20458;-85
2021/09/19 02:09:44;;;;;;;1.83;1.53;;;16.70;99.90;;;;;;6110269;23;20481;-85
2021/09/19 02:12:14;;;;;;;1.37;1.27;;;16.60;99.90;;;;;;6117168;23;20975;-85
2021/09/19 02:14:42;;;;;;;1.40;1.40;;;16.50;99.90;;;;;;6117744;23;20773;-84
2021/09/19 02:17:11;;;;;;;1.50;1.40;;;16.50;99.90;;;;;;6145680;23;20442;-84
2021/09/19 02:19:38;;;;;;;3.80;1.30;;;16.80;99.90;;;;;;6141050;23;20489;-85
2021/09/19 02:22:12;;;;;;;2.87;1.70;;;16.90;99.90;;;;;;6120789;23;20693;-84
2021/09/19 02:24:39;;;;;;;1.50;1.40;;;16.80;99.90;;;;;;6118276;23;20893;-84
2021/09/19 02:27:07;;;;;;;1.53;1.10;;;16.70;99.90;;;;;;6119610;23;21043;-87
2021/09/19 02:29:34;;;;;;;2.70;1.33;;;16.60;99.90;;;;;;6137022;23;20398;-85
2021/09/19 02:32:00;;;;;;;1.50;1.40;;;16.60;99.90;;;;;;6121492;23;20422;-85
2021/09/19 02:34:27;;;;;;;1.47;1.37;;;16.60;99.90;;;;;;6146366;23;20390;-84
2021/09/19 02:36:54;;;;;;;1.83;1.20;;;16.60;99.90;;;;;;6120847;23;20418;-85
2021/09/19 02:39:21;;;;;;;1.60;1.30;;;16.60;99.90;;;;;;6117545;23;20446;-85
2021/09/19 02:41:48;;;;;;;1.40;1.30;;;16.60;99.90;;;;;;6136417;23;20410;-85
2021/09/19 02:44:15;;;;;;;1.30;1.20;;;16.50;99.90;;;;;;6136609;23;20591;-83
2021/09/19 02:46:42;;;;;;;1.63;1.53;;;16.50;99.90;;;;;;6136299;23;20426;-84
2021/09/19 02:49:10;;;;;;;2.00;1.53;;;16.50;99.90;;;;;;6119846;23;20875;-87
2021/09/19 02:51:37;;;;;;;2.00;1.50;;;16.40;99.90;;;;;;6123397;23;20418;-83
2021/09/19 02:54:04;;;;;;;1.40;1.30;;;16.30;99.90;;;;;;6119552;23;20540;-84
2021/09/19 02:56:30;;;;;;;1.53;1.00;;;16.20;99.90;;;;;;6150328;23;20433;-86
2021/09/19 02:58:57;;;;;;;1.53;1.37;;;16.30;99.90;;;;;;6148738;23;20438;-85
2021/09/19 03:01:24;;;;;;;1.20;1.17;;;16.60;99.90;;;;;;6150457;23;20424;-85
2021/09/19 03:03:51;;;;;;;1.70;1.47;;;16.60;99.90;;;;;;6117948;23;20492;-85
2021/09/19 03:06:19;;;;;;;1.50;1.40;;;16.70;99.90;;;;;;6151851;23;20390;-84
2021/09/19 03:08:45;;;;;;;3.47;1.67;;;16.70;99.90;;;;;;6125328;23;20864;-85
2021/09/19 03:11:12;;;;;;;1.40;1.30;;;16.70;99.90;;;;;;6152219;23;20418;-84
2021/09/19 03:13:39;;;;;;;1.83;1.57;;;16.60;99.90;;;;;;6124061;23;20521;-85
2021/09/19 03:16:06;;;;;;;1.90;1.40;;;16.70;99.90;;;;;;6110368;23;21007;-85
2021/09/19 03:18:33;;;;;;;1.83;1.70;;;16.70;99.90;;;;;;6162657;23;20457;-85
2021/09/19 03:20:59;;;;;;;1.50;1.40;;;16.70;99.90;;;;;;6144684;23;20418;-84
2021/09/19 03:23:26;;;;;;;1.67;1.57;;;16.60;99.90;;;;;;6116657;23;20406;-83
2021/09/19 03:25:53;;;;;;;1.43;1.33;;;16.60;99.90;;;;;;6128656;23;20416;-83
2021/09/19 03:28:20;;;;;;;1.80;1.70;;;16.50;99.90;;;;;;6143635;23;20953;-85
2021/09/19 03:30:46;;;;;;;1.73;1.63;;;16.40;99.90;;;;;;6118579;23;21182;-84
2021/09/19 03:33:13;;;;;;;1.57;1.47;;;16.30;99.90;;;;;;6117080;23;20418;-83
2021/09/19 03:35:39;;;;;;;1.47;1.37;;;16.30;99.90;;;;;;6116412;23;20824;-84
2021/09/19 03:38:06;;;;;;;1.20;1.10;;;16.20;99.90;;;;;;6106855;23;20517;-85
2021/09/19 03:40:33;;;;;;;1.33;1.23;;;16.30;99.90;;;;;;6121367;23;21072;-82
2021/09/19 03:43:00;;;;;;;1.70;1.60;;;16.40;99.90;;;;;;6145637;23;20877;-84
2021/09/19 03:45:29;;;;;;;1.70;1.60;;;16.30;99.90;;;;;;6147579;23;20780;-85
2021/09/19 03:48:02;;;;;;;2.23;1.50;;;16.30;99.90;;;;;;6126700;23;20444;-86
2021/09/19 03:50:28;;;;;;;2.07;1.83;;;16.30;99.90;;;;;;6145435;23;20395;-86
2021/09/19 03:52:55;;;;;;;2.07;1.67;;;16.20;99.90;;;;;;6127124;23;20428;-85
2021/09/19 03:55:22;;;;;;;1.67;1.57;;;16.20;99.90;;;;;;6120228;23;20499;-85
2021/09/19 03:57:49;;;;;;;1.90;1.80;;;16.10;99.90;;;;;;6135931;23;20456;-83
2021/09/19 04:00:16;;;;;;;1.40;1.30;;;16.20;99.90;;;;;;6117199;23;20489;-84
2021/09/19 04:02:43;;;;;;;2.03;1.70;;;16.00;99.90;;;;;;6117546;23;20406;-85
2021/09/19 04:05:11;;;;;;;2.83;1.57;;;16.00;99.90;;;;;;6145585;23;20468;-84
2021/09/19 04:07:39;;;;;;;1.70;1.60;;;16.00;99.90;;;;;;6141619;23;20437;-86
2021/09/19 04:10:07;;;;;;;1.70;1.40;;;16.00;99.90;;;;;;6116879;23;20410;-85
2021/09/19 04:12:34;;;;;;;1.10;1.10;;;15.90;99.90;;;;;;6142731;23;20899;-86
2021/09/19 04:15:00;;;;;;;1.83;1.73;;;15.70;99.90;;;;;;6118007;23;20874;-84
2021/09/19 04:17:27;;;;;;;3.40;1.80;;;15.70;99.90;;;;;;6118004;23;20442;-85
2021/09/19 04:19:54;;;;;;;2.07;1.87;;;15.80;99.90;;;;;;6167525;23;20456;-85
2021/09/19 04:22:23;;;;;;;1.50;1.40;;;15.90;99.90;;;;;;6142703;23;20413;-85
2021/09/19 04:24:51;;;;;;;1.60;1.50;;;16.00;99.90;;;;;;6129347;23;20869;-85
2021/09/19 04:27:18;;;;;;;1.63;1.53;;;16.00;99.90;;;;;;6121917;23;20437;-85
2021/09/19 04:29:44;;;;;;;1.63;1.53;;;16.10;99.90;;;;;;6123884;23;20410;-86
2021/09/19 04:32:11;;;;;;;1.70;1.40;;;16.20;99.90;;;;;;6119648;23;20750;-86
2021/09/19 04:34:38;;;;;;;5.33;1.80;;;16.00;99.90;;;;;;6145861;23;20425;-85
2021/09/19 04:37:05;;;;;;;1.60;1.50;;;16.10;99.90;;;;;;6121235;23;20434;-85
2021/09/19 04:39:32;;;;;;;1.80;1.70;;;16.00;99.90;;;;;;6145967;23;20552;-85
2021/09/19 04:41:58;;;;;;;2.00;1.80;;;16.10;99.90;;;;;;6147856;23;20414;-86
2021/09/19 04:44:25;;;;;;;1.70;1.60;;;16.10;99.90;;;;;;6146357;23;20401;-83
2021/09/19 04:46:52;;;;;;;1.90;1.80;;;15.80;99.90;;;;;;6148770;23;20438;-86
2021/09/19 04:49:18;;;;;;;1.60;1.50;;;15.90;99.90;;;;;;6142653;23;20420;-85
2021/09/19 04:51:45;;;;;;;1.90;1.80;;;15.80;99.90;;;;;;6139771;23;20410;-83
2021/09/19 04:54:12;;;;;;;1.57;1.40;;;15.70;99.90;;;;;;6115774;23;20410;-86
2021/09/19 04:56:38;;;;;;;1.77;1.67;;;15.80;99.90;;;;;;6142201;23;20433;-86
2021/09/19 04:59:05;;;;;;;1.97;1.77;;;15.90;99.90;;;;;;6142636;23;20441;-86
2021/09/19 05:01:32;;;;;;;2.00;1.90;;;16.00;99.90;;;;;;6146145;23;21017;-85
2021/09/19 05:03:59;;;;;;;2.77;2.03;;;15.90;99.90;;;;;;6121796;23;20817;-86
2021/09/19 05:06:26;;;;;;;1.50;1.40;;;15.80;99.90;;;;;;6119311;23;20508;-84
2021/09/19 05:08:52;;;;;;;1.80;1.70;;;15.80;99.90;;;;;;6122474;23;20414;-85
2021/09/19 05:11:19;;;;;;;1.93;1.70;;;15.70;99.90;;;;;;6122885;23;20418;-86
2021/09/19 05:13:46;;;;;;;6.20;2.17;;;15.90;99.90;;;;;;6150327;23;20492;-84
2021/09/19 05:16:13;;;;;;;2.57;2.37;;;15.80;99.90;;;;;;6149232;23;20492;-85
2021/09/19 05:18:39;;;;;;;3.00;1.50;;;15.90;99.90;;;;;;6117439;23;20445;-87
2021/09/19 05:21:06;;;;;;;2.10;2.00;;;15.80;99.90;;;;;;6122853;23;20406;-88
2021/09/19 05:23:33;;;;;;;2.03;1.93;;;15.80;99.90;;;;;;6124704;23;20402;-86
2021/09/19 05:26:00;;;;;;;2.50;2.33;;;15.70;99.90;;;;;;6122246;23;20909;-85
2021/09/19 05:28:27;;;;;;;2.20;2.00;;;15.60;99.90;;;;;;6122254;23;20465;-86
2021/09/19 05:30:53;;;;;;;1.87;1.70;;;15.70;99.90;;;;;;6125331;23;20382;-86
2021/09/19 05:33:20;;;;;;;2.50;2.30;;;15.70;99.90;;;;;;6122098;23;20410;-85
2021/09/19 05:35:47;;;;;;;2.50;2.30;;;15.60;99.90;;;;;;6124129;23;20390;-88
2021/09/19 05:38:14;;;;;;;2.40;2.10;;;15.80;99.90;;;;;;6149027;23;20462;-84
2021/09/19 05:40:41;;;;;;;2.90;2.70;;;15.90;99.90;;;;;;6124256;23;20390;-85
2021/09/19 05:43:08;;;;;;;2.20;2.00;;;15.80;99.90;;;;;;6126865;23;20421;-86
2021/09/19 05:45:34;;;;;;;2.83;2.40;;;15.80;99.90;;;;;;6138050;23;20406;-85
2021/09/19 05:48:01;;;;;;;2.70;2.50;;;15.80;99.90;;;;;;6136266;23;20430;-84
2021/09/19 05:50:28;;;;;;;2.90;2.53;;;15.80;99.90;;;;;;6161145;23;20402;-86
2021/09/19 05:52:55;;;;;;;2.93;2.73;;;15.70;99.90;;;;;;6124815;23;20619;-86
2021/09/19 05:55:21;;;;;;;2.70;2.50;;;15.60;99.90;;;;;;6119472;23;20402;-85
2021/09/19 05:57:48;;;;;;;3.23;2.67;;;15.70;99.90;;;;;;6119844;23;20434;-85
2021/09/19 06:00:15;;;;;;;2.63;2.40;;;15.60;99.90;;;;;;6136646;23;20472;-86
2021/09/19 06:02:42;;;;;;;2.60;2.40;;;15.70;99.90;;;;;;6147644;23;20730;-85
2021/09/19 06:05:10;;;;;;;2.87;2.67;;;15.80;99.90;;;;;;6117845;23;20493;-85
2021/09/19 06:07:38;;;;;;;2.93;2.63;;;16.20;99.90;;;;;;6120905;23;20430;-86
2021/09/19 06:10:05;;;;;;;2.90;2.63;;;18.00;99.90;;;;;;6144285;23;20441;-84
2021/09/19 06:12:32;;;;;;;2.73;2.53;;;19.70;98.90;;;;;;6121241;23;20897;-84
2021/09/19 06:14:59;;;;;;;2.90;2.37;;;21.20;95.60;;;;;;6121704;23;20406;-86
2021/09/19 06:17:26;;;;;;;3.17;2.90;;;21.90;93.30;;;;;;6120049;23;20441;-84
2021/09/19 06:19:52;;;;;;;3.30;2.50;;;21.30;92.20;;;;;;6119181;23;21010;-84
2021/09/19 06:22:19;;;;;;;2.80;2.60;;;19.90;93.80;;;;;;6122189;23;20489;-85
2021/09/19 06:24:46;;;;;;;2.30;2.20;;;18.80;95.60;;;;;;6144441;23;20414;-83
2021/09/19 06:27:13;;;;;;;2.77;2.57;;;17.90;98.20;;;;;;6122743;23;20429;-85
2021/09/19 06:29:41;;;;;;;4.13;2.80;;;18.50;99.60;;;;;;6113554;23;20417;-85
2021/09/19 06:32:09;;;;;;;2.73;2.53;;;18.50;97.70;;;;;;6146486;23;20951;-86
2021/09/19 06:34:40;;;;;;;3.13;2.83;;;17.90;98.50;;;;;;6117322;23;20398;-83
2021/09/19 06:37:07;;;;;;;2.90;2.70;;;17.30;99.90;;;;;;6145844;23;20434;-84
2021/09/19 06:39:34;;;;;;;2.97;2.77;;;17.10;99.90;;;;;;6146261;23;20922;-86
2021/09/19 06:42:01;;;;;;;3.20;3.00;;;16.80;99.90;;;;;;6151471;23;20405;-85
2021/09/19 06:44:27;;;;;;;2.80;2.60;;;16.80;99.90;;;;;;6134802;23;20424;-86
2021/09/19 06:46:56;;;;;;;3.27;2.97;;;16.80;99.90;;;;;;6134311;23;20433;-87
2021/09/19 06:49:24;;;;;;;3.57;3.23;;;16.70;99.90;;;;;;5995887;23;20449;-85
2021/09/19 06:51:51;;;;;;;3.57;3.27;;;16.80;99.90;;;;;;6129544;23;20401;-86
2021/09/19 06:54:17;;;;;;;3.80;3.40;;;16.90;99.90;;;;;;6137173;23;20409;-87
2021/09/19 06:56:47;;;;;;;3.20;2.90;;;17.00;99.90;;;;;;6136575;23;20498;-86
2021/09/19 06:59:14;;;;;;;3.70;3.20;;;17.20;99.90;;;;;;6125579;23;20442;-86
2021/09/19 07:01:40;;;;;;;3.50;3.20;;;17.20;99.90;;;;;;6147527;23;20418;-85
2021/09/19 07:04:07;;;;;;;2.90;2.70;;;17.10;99.90;;;;;;6154813;23;20418;-86
2021/09/19 07:06:34;;;;;;;2.97;2.77;;;16.90;99.90;;;;;;6124086;23;20422;-86
2021/09/19 07:09:02;;;;;;;3.10;2.90;;;17.00;99.90;;;;;;6120910;23;20422;-85
2021/09/19 07:11:29;;;;;;;2.87;2.63;;;17.20;99.90;;;;;;6150497;23;20908;-85
2021/09/19 07:13:56;;;;;;;2.80;2.60;;;17.60;99.90;;;;;;6118688;23;21014;-85
2021/09/19 07:16:23;;;;;;;2.60;2.40;;;19.50;99.90;;;;;;6149501;23;20412;-84
2021/09/19 07:18:50;;;;;;;2.60;2.40;;;22.60;93.60;;;;;;6121769;23;20452;-84
2021/09/19 07:21:17;;;;;;;2.83;2.57;;;24.10;90.60;;;;;;6147862;23;20410;-85
2021/09/19 07:23:44;;;;;;;4.00;3.03;;;25.40;83.80;;;;;;6148310;23;20445;-85
2021/09/19 07:26:10;;;;;;;2.63;2.43;;;26.30;77.00;;;;;;6148895;23;20432;-84
2021/09/19 07:28:43;;;;;;;2.93;2.43;;;27.10;74.60;;;;;;6148218;23;20423;-83
2021/09/19 07:31:13;;;;;;;2.80;2.60;;;28.30;69.30;;;;;;6109491;23;20410;-84
2021/09/19 07:33:50;;;;;;;2.40;2.20;;;28.90;66.80;;;;;;6118540;23;20413;-83
2021/09/19 07:36:25;;;;;;;2.47;2.27;;;29.40;62.50;;;;;;6144923;23;20647;-85
2021/09/19 07:38:54;;;;;;;2.23;2.07;;;29.40;61.60;;;;;;6117870;23;20456;-85
2021/09/19 07:41:27;;;;;;;2.43;2.23;;;30.20;59.10;;;;;;6122989;23;20458;-85
2021/09/19 07:44:03;;;;;;;2.00;1.90;;;30.20;58.30;;;;;;6139606;23;20848;-82
2021/09/19 07:46:31;;;;;;;2.20;2.00;;;30.40;57.20;;;;;;6138418;23;20445;-86
2021/09/19 07:48:59;;;;;;;2.37;2.17;;;30.70;56.50;;;;;;6148669;23;20441;-87
2021/09/19 07:51:39;;;;;;;3.67;3.00;;;30.50;55.20;;;;;;6127286;23;20444;-86
2021/09/19 07:54:10;;;;;;;2.40;2.20;;;31.10;54.70;;;;;;6125733;23;20500;-87
2021/09/19 07:56:37;;;;;;;2.37;2.17;;;30.70;54.20;;;;;;6145875;23;21376;-86
2021/09/19 07:59:12;;;;;;;2.93;2.73;;;30.70;54.10;;;;;;6121385;23;20740;-83
2021/09/19 08:01:40;;;;;;;2.23;2.03;;;28.30;56.40;;;;;;6149738;23;21007;-84
2021/09/19 08:04:12;;;;;;;2.80;2.60;;;25.50;64.20;;;;;;6118033;23;20424;-85
2021/09/19 08:06:51;;;;;;;2.90;2.70;;;23.40;72.00;;;;;;6117702;23;20489;-84
2021/09/19 08:09:25;;;;;;;2.70;2.50;;;22.10;78.90;;;;;;6123622;23;20408;-83
2021/09/19 08:12:07;;;;;;;2.70;2.50;;;21.40;84.80;;;;;;6124816;23;20760;-84
2021/09/19 08:14:48;;;;;;;3.03;2.83;;;21.00;89.30;;;;;;6125738;23;20441;-83
2021/09/19 08:17:19;;;;;;;2.60;2.40;;;20.50;90.80;;;;;;6136236;23;20445;-84
2021/09/19 08:20:09;;;;;;;2.70;2.50;;;20.30;92.30;;;;;;6133252;23;20442;-84
2021/09/19 08:22:40;;;;;;;3.20;2.57;;;20.10;93.10;;;;;;6152579;23;20999;-83
2021/09/19 08:25:13;;;;;;;2.53;2.33;;;20.10;93.30;;;;;;6119559;23;20410;-85
2021/09/19 08:27:41;;;;;;;2.33;2.23;;;19.80;93.90;;;;;;6123821;23;20647;-86
2021/09/19 08:30:44;;;;;;;2.50;2.40;;;19.80;94.50;;;;;;6125179;23;20421;-83
2021/09/19 08:33:10;;;;;;;2.80;2.60;;;19.90;94.40;;;;;;6147245;23;20418;-83
2021/09/19 08:35:42;;;;;;;2.80;2.60;;;19.70;94.60;;;;;;6150385;23;20409;-85
2021/09/19 08:38:20;;;;;;;2.37;2.27;;;19.80;94.80;;;;;;6126664;23;20521;-83
2021/09/19 08:40:51;;;;;;;3.43;2.37;;;19.60;95.20;;;;;;6122140;23;20835;-86
2021/09/19 08:43:47;;;;;;;2.70;2.50;;;19.50;95.30;;;;;;6121514;23;20382;-84
2021/09/19 08:46:25;;;;;;;2.73;2.53;;;19.70;95.70;;;;;;6126771;23;20382;-84
2021/09/19 08:49:18;;;;;;;3.10;2.90;;;19.80;95.80;;;;;;6122442;23;20444;-83
2021/09/19 08:51:48;;;;;;;2.30;2.17;;;19.70;95.10;;;;;;6122355;23;20545;-83
2021/09/19 08:54:32;;;;;;;2.63;2.20;;;19.70;95.20;;;;;;6123014;23;20429;-84
2021/09/19 08:57:02;;;;;;;2.20;2.00;;;19.50;94.40;;;;;;6124479;23;20445;-85
2021/09/19 08:59:51;;;;;;;2.43;2.30;;;19.50;94.40;;;;;;6119415;23;20437;-83
2021/09/19 09:02:22;;;;;;;2.07;1.97;;;19.60;94.00;;;;;;6147433;23;20413;-85
2021/09/19 09:04:56;;;;;;;2.23;2.10;;;19.40;94.10;;;;;;6119240;23;20414;-84
2021/09/19 09:07:36;;;;;;;4.63;2.10;;;19.50;93.90;;;;;;6124123;23;20437;-84
2021/09/19 09:13:06;;;;;;;1.80;1.70;;;19.70;93.40;;;;;;6124451;23;20418;-83
2021/09/19 09:15:37;;;;;;;1.73;1.63;;;19.70;93.50;;;;;;6149876;23;20421;-84
2021/09/19 09:18:07;;;;;;;2.10;2.00;;;19.50;93.40;;;;;;6148973;23;20528;-84
2021/09/19 09:20:53;;;;;;;2.23;2.03;;;19.70;93.80;;;;;;6123201;23;20446;-84
2021/09/19 09:23:25;;;;;;;1.87;1.77;;;19.70;93.10;;;;;;6133117;23;20378;-85
2021/09/19 09:26:13;;;;;;;2.13;1.93;;;19.70;93.50;;;;;;6160743;23;20457;-85
2021/09/19 09:28:47;;;;;;;2.10;2.00;;;19.80;93.30;;;;;;6119721;23;20401;-85
2021/09/19 09:31:32;;;;;;;3.40;2.13;;;19.80;93.20;;;;;;6121084;23;20414;-83
2021/09/19 09:34:11;;;;;;;2.43;2.17;;;19.80;93.30;;;;;;6117837;23;20414;-85
2021/09/19 09:36:52;;;;;;;1.93;1.83;;;19.70;93.40;;;;;;6118382;23;20444;-84
2021/09/19 09:39:39;;;;;;;4.00;2.60;;;19.80;92.90;;;;;;6117265;23;20438;-85
2021/09/19 09:42:21;;;;;;;2.40;2.20;;;20.20;92.40;;;;;;6120992;23;20489;-83
2021/09/19 09:44:53;;;;;;;2.00;1.80;;;20.50;92.20;;;;;;6145083;23;20896;-83
2021/09/19 09:47:23;;;;;;;1.80;1.70;;;22.20;87.50;;;;;;6124093;23;20449;-84
2021/09/19 09:49:55;;;;;;;1.90;1.80;;;23.50;82.20;;;;;;6148817;23;20422;-86
2021/09/19 09:52:30;;;;;;;2.23;2.03;;;24.20;78.50;;;;;;6127390;23;20414;-86
2021/09/19 09:55:13;;;;;;;1.80;1.70;;;25.30;73.10;;;;;;6151812;23;21069;-85
2021/09/19 09:58:10;;;;;;;1.70;1.60;;;25.60;70.40;;;;;;6132870;23;21058;-84
2021/09/19 10:01:07;;;;;;;1.80;1.70;;;26.20;69.00;;;;;;6124485;23;20430;-85
2021/09/19 10:03:48;;;;;;;1.80;1.70;;;26.70;65.60;;;;;;6124845;23;20960;-85
2021/09/19 10:06:15;;;;;;;1.70;1.60;;;26.30;64.20;;;;;;6151470;23;20411;-85
2021/09/19 10:08:49;;;;;;;1.77;1.67;;;25.70;66.10;;;;;;6125428;23;20414;-83
2021/09/19 10:12:00;;;;;;;;;;;;;;;;;;;;;
2021/09/19 10:14:34;;;;;;;1.87;1.77;;;25.30;67.20;;;;;;6135541;23;20436;-85
2021/09/19 10:17:13;;;;;;;1.70;1.60;;;24.40;69.60;;;;;;6124925;23;20448;-85
2021/09/19 10:19:49;;;;;;;2.40;2.20;;;23.70;73.50;;;;;;6122016;23;21212;-84
2021/09/19 10:22:46;;;;;;;1.83;1.73;;;24.10;73.20;;;;;;6122871;23;20643;-85
2021/09/19 10:25:52;;;;;;;;;;;;;;;;;;;;;
2021/09/19 10:28:28;;;;;;;1.60;1.50;;;25.00;68.10;;;;;;6145875;23;21282;-85
2021/09/19 10:34:10;;;;;;;2.40;2.17;;;23.80;72.50;;;;;;6150502;23;21399;-85
2021/09/19 10:36:52;;;;;;;2.10;2.00;;;24.70;70.20;;;;;;6123471;23;20437;-85
2021/09/19 10:39:35;;;;;;;2.07;1.53;;;25.40;68.00;;;;;;6146144;23;20405;-83
2021/09/19 10:42:20;;;;;;;1.70;1.60;;;25.90;65.50;;;;;;6147103;23;20425;-84
2021/09/19 10:47:58;;;;;;;1.53;1.43;;;26.30;64.30;;;;;;6121625;23;20465;-85
2021/09/19 10:50:36;;;;;;;2.13;2.03;;;26.50;62.60;;;;;;6117332;23;20416;-86
2021/09/19 10:53:26;;;;;;;1.70;1.60;;;26.60;63.00;;;;;;6149287;23;20401;-84
2021/09/19 10:56:03;;;;;;;1.77;1.67;;;27.30;60.00;;;;;;6124208;23;20414;-84
2021/09/19 10:58:33;;;;;;;1.80;1.70;;;27.10;60.50;;;;;;6120517;23;20441;-85
2021/09/19 11:01:24;;;;;;;1.77;1.67;;;26.50;60.30;;;;;;6125992;23;20557;-85
2021/09/19 11:03:59;;;;;;;2.17;2.00;;;25.30;63.80;;;;;;6123849;23;20477;-84
2021/09/19 11:06:31;;;;;;;1.90;1.80;;;24.50;65.30;;;;;;6119599;23;20607;-84
2021/09/19 11:09:19;;;;;;;3.00;2.80;;;23.70;68.70;;;;;;6122377;23;21146;-84
2021/09/19 11:12:09;;;;;;;2.37;2.17;;;23.10;70.80;;;;;;6123872;23;20647;-84
2021/09/19 11:14:58;;;;;;;2.83;2.10;;;22.50;73.50;;;;;;6127317;23;20426;-84
2021/09/19 11:17:27;;;;;;;2.43;2.00;;;22.50;74.30;;;;;;6116406;23;20450;-85
2021/09/19 11:22:53;;;;;;;1.90;1.80;;;22.20;74.50;;;;;;6149735;23;20438;-83
2021/09/19 11:25:34;;;;;;;2.00;1.90;;;22.10;75.00;;;;;;6120705;23;20414;-84
2021/09/19 11:28:28;;;;;;;2.63;2.47;;;22.10;75.40;;;;;;6120755;23;20423;-85
2021/09/19 11:31:07;;;;;;;2.33;2.13;;;22.00;76.10;;;;;;6118106;23;20467;-85
2021/09/19 11:33:55;;;;;;;2.40;2.20;;;22.10;76.10;;;;;;6119761;23;20426;-83
2021/09/19 11:36:33;;;;;;;2.20;2.10;;;22.10;76.90;;;;;;6108676;23;20431;-84
2021/09/19 11:39:10;;;;;;;3.90;2.00;;;21.90;77.10;;;;;;6100734;23;20415;-85
2021/09/19 11:41:49;;;;;;;2.40;2.20;;;22.10;76.90;;;;;;6104079;23;20431;-85
2021/09/19 11:44:19;;;;;;;2.47;2.37;;;22.10;76.10;;;;;;6125375;23;20489;-85
2021/09/19 11:46:54;;;;;;;4.90;2.33;;;21.80;77.10;;;;;;6121837;23;20509;-85
2021/09/19 11:49:26;;;;;;;4.80;2.27;;;21.70;78.60;;;;;;6120290;23;20419;-86
2021/09/19 11:52:11;;;;;;;2.40;2.20;;;22.00;78.60;;;;;;6093891;23;20469;-84
2021/09/19 11:56:36;;;;;;;2.40;2.20;;;22.10;77.70;;;;;;5980722;23;20411;-86
2021/09/19 12:02:43;;;;;;;2.27;2.07;;;22.00;77.30;;;;;;5823189;24;20471;-84
2021/09/19 12:05:14;;;;;;;3.07;2.30;;;21.90;77.40;;;;;;5841340;24;20428;-87
2021/09/19 12:07:46;;;;;;;3.00;2.53;;;21.80;78.00;;;;;;5955626;23;20441;-85
2021/09/19 12:13:59;;;;;;;4.13;2.60;;;22.10;77.50;;;;;;6016679;23;20410;-86
2021/09/19 12:16:29;;;;;;;2.20;2.10;;;22.10;76.20;;;;;;6036404;23;20999;-85
2021/09/19 12:19:20;;;;;;;2.70;2.23;;;22.00;75.70;;;;;;6015668;23;21000;-87
2021/09/19 12:22:03;;;;;;;3.00;1.93;;;22.00;76.70;;;;;;6012998;23;20536;-85
2021/09/19 12:24:38;;;;;;;5.23;2.00;;;22.10;77.50;;;;;;6013037;23;20482;-86
2021/09/19 12:27:20;;;;;;;3.00;2.70;;;22.10;76.70;;;;;;6008559;23;20964;-85
2021/09/19 12:30:07;;;;;;;3.30;3.00;;;22.10;76.80;;;;;;6014208;23;20505;-83
2021/09/19 12:32:55;;;;;;;2.53;2.17;;;22.30;76.40;;;;;;6015096;23;20485;-85
2021/09/19 12:35:36;;;;;;;2.97;2.77;;;22.40;74.60;;;;;;6048653;23;20417;-85
2021/09/19 12:38:25;;;;;;;3.00;2.80;;;22.40;75.00;;;;;;6112077;23;20430;-86
2021/09/19 12:41:36;;;;;;;2.53;2.33;;;22.30;75.90;;;;;;6123868;23;20434;-86
2021/09/19 12:44:24;;;;;;;2.33;2.13;;;22.20;76.70;;;;;;6113648;23;20407;-85
2021/09/19 12:47:07;;;;;;;2.53;2.33;;;22.20;75.00;;;;;;6114701;23;20466;-86
2021/09/19 12:49:47;;;;;;;3.13;2.83;;;21.90;76.20;;;;;;6110075;23;20434;-85
2021/09/19 12:52:18;;;;;;;2.60;2.40;;;21.80;77.50;;;;;;6104476;23;20407;-85
2021/09/19 12:55:03;;;;;;;2.60;2.40;;;21.70;77.20;;;;;;6125677;23;20427;-87
2021/09/19 12:57:40;;;;;;;2.90;2.70;;;21.60;76.90;;;;;;6127080;23;20492;-85
2021/09/19 13:00:22;;;;;;;2.90;2.57;;;21.60;77.30;;;;;;6181162;23;20448;-86
2021/09/19 13:03:09;;;;;;;2.10;2.00;;;21.60;77.30;;;;;;6183475;23;20397;-85
2021/09/19 13:05:52;;;;;;;4.20;2.67;;;21.40;77.30;;;;;;6182295;23;20860;-86
2021/09/19 13:08:30;;;;;;;2.50;2.30;;;21.30;77.70;;;;;;6182595;23;20514;-85
2021/09/19 13:11:25;;;;;;;2.87;2.57;;;21.40;77.80;;;;;;6182582;23;20393;-85
2021/09/19 13:18:05;;;;;;;2.50;2.30;;;21.40;77.70;;;;;;6044210;23;20506;-85
2021/09/19 13:20:37;;;;;;;2.60;2.40;;;21.30;77.40;;;;;;6175136;23;20440;-85
2021/09/19 13:23:11;;;;;;;2.53;2.40;;;21.30;77.90;;;;;;6182417;23;20434;-86
2021/09/19 13:25:54;;;;;;;2.60;2.40;;;21.20;77.60;;;;;;6179232;23;20408;-85
2021/09/19 13:28:31;;;;;;;2.97;2.77;;;21.10;78.50;;;;;;6173768;23;20861;-85
2021/09/19 13:31:09;;;;;;;3.40;3.10;;;21.20;78.40;;;;;;6186442;23;20488;-84
2021/09/19 13:33:52;;;;;;;3.40;3.10;;;21.20;78.20;;;;;;6198793;23;20404;-84
2021/09/19 13:36:26;;;;;;;2.93;2.73;;;21.30;78.30;;;;;;6187407;23;20420;-85
2021/09/19 13:38:58;;;;;;;3.90;3.57;;;21.40;78.90;;;;;;6192388;23;20999;-86